Terminal Aerodrome Forecast
Issued by NWS

Home | Current Version | Previous Version | Text Only | Print | Product List | Glossary On
Versions: 1 2 3 4 5 6 7 8 9 10 11 12 13 14 15 16 17 18 19 20 21
811
FTUS43 KDLH 031603 AAA
TAFHYR
TAF AMD
KHYR 031603Z 0316/0412 26009G18KT P6SM VCSH BKN100
     FM032200 32012G22KT P6SM BKN100
     FM040200 35009KT P6SM SCT100
     FM040600 VRB03KT P6SM SKC=

USA.gov is the U.S. government's official web portal to all federal, state and local government web resources and services.